Virginville, Pennsylvania
Current Conditions -  °F | °C
As of 1:22 PM on Wednesday 26 Nov 2014 (Local Time) from KRDG Reporting Station
Light Snow Light Snow  
Wind Chill: 27°   Ceiling: 500
Heat Index: 34°   Visibility: 1.5mi
Dew Point: 31°   Wind: 9mph
Humidity: 89%   Direction: 30°NNE
Pressure: 29.95"   Gusts: NA
Location:  40.52°N, 75.87°W
Report Text: KRDG 261822Z 03008KT 1 1/2SM R36/4500VP6000FT -SN BR OVC005 01/M01 A2995 RMK AO2 SFC VIS 3 CIG 003V009 PRESFR P0000 T00111006
Loading
Personal Weather Stations






























Interactive Weather Map New forecast layout! Learn more

10-Day Weather Forecast

Advertisements
Track Severe Weather on mobile